sensor_id;sensor_type;location;lat;lon;timestamp;temperature;humidity
31113;DHT22;17763;48.730;9.136;2022-07-06T00:01:14;19.40;63.00
31113;DHT22;17763;48.730;9.136;2022-07-06T00:03:40;19.30;63.00
31113;DHT22;17763;48.730;9.136;2022-07-06T00:06:05;19.30;63.30
31113;DHT22;17763;48.730;9.136;2022-07-06T00:08:33;19.30;63.60
31113;DHT22;17763;48.730;9.136;2022-07-06T00:10:59;19.20;63.70
31113;DHT22;17763;48.730;9.136;2022-07-06T00:13:29;19.20;63.90
31113;DHT22;17763;48.730;9.136;2022-07-06T00:15:55;19.20;64.20
31113;DHT22;17763;48.730;9.136;2022-07-06T00:18:21;19.10;64.40
31113;DHT22;17763;48.730;9.136;2022-07-06T00:20:49;19.10;64.90
31113;DHT22;17763;48.730;9.136;2022-07-06T00:23:14;19.10;65.10
31113;DHT22;17763;48.730;9.136;2022-07-06T00:25:43;19.00;65.60
31113;DHT22;17763;48.730;9.136;2022-07-06T00:28:11;19.00;65.80
31113;DHT22;17763;48.730;9.136;2022-07-06T00:30:36;18.90;65.90
31113;DHT22;17763;48.730;9.136;2022-07-06T00:33:02;18.90;65.90
31113;DHT22;17763;48.730;9.136;2022-07-06T00:35:28;18.90;65.90
31113;DHT22;17763;48.730;9.136;2022-07-06T00:37:53;18.90;66.10
31113;DHT22;17763;48.730;9.136;2022-07-06T00:40:22;18.90;66.20
31113;DHT22;17763;48.730;9.136;2022-07-06T00:42:48;18.80;66.20
31113;DHT22;17763;48.730;9.136;2022-07-06T00:45:15;18.80;66.30
31113;DHT22;17763;48.730;9.136;2022-07-06T00:47:41;18.80;66.30
31113;DHT22;17763;48.730;9.136;2022-07-06T00:50:09;18.80;66.40
31113;DHT22;17763;48.730;9.136;2022-07-06T00:52:55;18.70;66.30
31113;DHT22;17763;48.730;9.136;2022-07-06T00:55:24;18.80;66.40
31113;DHT22;17763;48.730;9.136;2022-07-06T00:57:52;18.70;66.50
31113;DHT22;17763;48.730;9.136;2022-07-06T01:00:20;18.70;66.50
31113;DHT22;17763;48.730;9.136;2022-07-06T01:02:49;18.70;66.70
31113;DHT22;17763;48.730;9.136;2022-07-06T01:05:18;18.60;67.00
31113;DHT22;17763;48.730;9.136;2022-07-06T01:07:45;18.60;67.20
31113;DHT22;17763;48.730;9.136;2022-07-06T01:10:12;18.50;67.30
31113;DHT22;17763;48.730;9.136;2022-07-06T01:12:40;18.50;67.50
31113;DHT22;17763;48.730;9.136;2022-07-06T01:15:10;18.50;67.50
31113;DHT22;17763;48.730;9.136;2022-07-06T01:17:38;18.50;67.30
31113;DHT22;17763;48.730;9.136;2022-07-06T01:22:37;18.60;67.40
31113;DHT22;17763;48.730;9.136;2022-07-06T01:25:04;18.60;67.40
31113;DHT22;17763;48.730;9.136;2022-07-06T01:27:30;18.50;67.60
31113;DHT22;17763;48.730;9.136;2022-07-06T01:29:56;18.50;67.60
31113;DHT22;17763;48.730;9.136;2022-07-06T01:32:24;18.50;67.80
31113;DHT22;17763;48.730;9.136;2022-07-06T01:34:54;18.40;67.80
31113;DHT22;17763;48.730;9.136;2022-07-06T01:37:20;18.40;67.50
31113;DHT22;17763;48.730;9.136;2022-07-06T01:39:48;18.30;67.80
31113;DHT22;17763;48.730;9.136;2022-07-06T01:42:13;18.20;68.00
31113;DHT22;17763;48.730;9.136;2022-07-06T01:44:41;18.20;68.10
31113;DHT22;17763;48.730;9.136;2022-07-06T01:47:07;18.10;68.20
31113;DHT22;17763;48.730;9.136;2022-07-06T01:49:35;18.00;68.60
31113;DHT22;17763;48.730;9.136;2022-07-06T01:52:03;18.00;68.70
31113;DHT22;17763;48.730;9.136;2022-07-06T01:54:29;18.00;69.10
31113;DHT22;17763;48.730;9.136;2022-07-06T01:56:54;18.00;69.30
31113;DHT22;17763;48.730;9.136;2022-07-06T01:59:22;18.00;69.10
31113;DHT22;17763;48.730;9.136;2022-07-06T02:01:48;18.00;68.80
31113;DHT22;17763;48.730;9.136;2022-07-06T02:04:16;18.00;68.90
31113;DHT22;17763;48.730;9.136;2022-07-06T02:06:43;17.90;68.90
31113;DHT22;17763;48.730;9.136;2022-07-06T02:09:09;17.90;68.90
31113;DHT22;17763;48.730;9.136;2022-07-06T02:11:39;17.90;68.70
31113;DHT22;17763;48.730;9.136;2022-07-06T02:14:05;17.90;69.10
31113;DHT22;17763;48.730;9.136;2022-07-06T02:16:33;17.90;68.70
31113;DHT22;17763;48.730;9.136;2022-07-06T02:18:59;17.80;68.90
31113;DHT22;17763;48.730;9.136;2022-07-06T02:21:24;17.90;68.90
31113;DHT22;17763;48.730;9.136;2022-07-06T02:23:52;17.90;68.60
31113;DHT22;17763;48.730;9.136;2022-07-06T02:26:18;18.00;68.60
31113;DHT22;17763;48.730;9.136;2022-07-06T02:28:43;18.00;68.40
31113;DHT22;17763;48.730;9.136;2022-07-06T02:31:11;18.00;68.40
31113;DHT22;17763;48.730;9.136;2022-07-06T02:33:39;18.10;68.40
31113;DHT22;17763;48.730;9.136;2022-07-06T02:36:04;18.10;68.10
31113;DHT22;17763;48.730;9.136;2022-07-06T02:38:30;18.10;68.00
31113;DHT22;17763;48.730;9.136;2022-07-06T02:40:56;18.10;68.00
31113;DHT22;17763;48.730;9.136;2022-07-06T02:43:21;18.10;68.10
31113;DHT22;17763;48.730;9.136;2022-07-06T02:45:52;18.10;68.30
31113;DHT22;17763;48.730;9.136;2022-07-06T02:48:17;18.10;68.30
31113;DHT22;17763;48.730;9.136;2022-07-06T02:50:44;18.10;68.30
31113;DHT22;17763;48.730;9.136;2022-07-06T02:53:10;18.10;68.40
31113;DHT22;17763;48.730;9.136;2022-07-06T02:55:38;18.10;68.50
31113;DHT22;17763;48.730;9.136;2022-07-06T02:58:06;18.10;68.60
31113;DHT22;17763;48.730;9.136;2022-07-06T03:00:32;18.00;68.60
31113;DHT22;17763;48.730;9.136;2022-07-06T03:02:59;18.00;68.60
31113;DHT22;17763;48.730;9.136;2022-07-06T03:05:25;17.90;69.00
31113;DHT22;17763;48.730;9.136;2022-07-06T03:07:53;17.90;69.40
31113;DHT22;17763;48.730;9.136;2022-07-06T03:10:18;17.70;69.70
31113;DHT22;17763;48.730;9.136;2022-07-06T03:12:46;17.60;70.00
31113;DHT22;17763;48.730;9.136;2022-07-06T03:15:12;17.60;70.50
31113;DHT22;17763;48.730;9.136;2022-07-06T03:17:38;17.60;70.90
31113;DHT22;17763;48.730;9.136;2022-07-06T03:20:06;17.60;71.10
31113;DHT22;17763;48.730;9.136;2022-07-06T03:22:32;17.50;71.30
31113;DHT22;17763;48.730;9.136;2022-07-06T03:24:58;17.50;71.50
31113;DHT22;17763;48.730;9.136;2022-07-06T03:27:26;17.40;71.80
31113;DHT22;17763;48.730;9.136;2022-07-06T03:29:51;17.40;72.10
31113;DHT22;17763;48.730;9.136;2022-07-06T03:32:21;17.40;72.30
31113;DHT22;17763;48.730;9.136;2022-07-06T03:34:49;17.40;72.30
31113;DHT22;17763;48.730;9.136;2022-07-06T03:37:17;17.40;72.50
31113;DHT22;17763;48.730;9.136;2022-07-06T03:39:45;17.30;72.90
31113;DHT22;17763;48.730;9.136;2022-07-06T03:42:11;17.30;73.30
31113;DHT22;17763;48.730;9.136;2022-07-06T03:44:39;17.20;73.50
31113;DHT22;17763;48.730;9.136;2022-07-06T03:47:05;17.20;73.80
31113;DHT22;17763;48.730;9.136;2022-07-06T03:49:30;17.20;73.90
31113;DHT22;17763;48.730;9.136;2022-07-06T03:51:58;17.10;74.20
31113;DHT22;17763;48.730;9.136;2022-07-06T03:54:24;17.10;74.40
31113;DHT22;17763;48.730;9.136;2022-07-06T03:56:52;17.10;74.40
31113;DHT22;17763;48.730;9.136;2022-07-06T03:59:22;17.10;74.70
31113;DHT22;17763;48.730;9.136;2022-07-06T04:01:48;17.10;74.80
31113;DHT22;17763;48.730;9.136;2022-07-06T04:04:14;17.10;75.00
31113;DHT22;17763;48.730;9.136;2022-07-06T04:06:42;17.10;75.20
31113;DHT22;17763;48.730;9.136;2022-07-06T04:09:07;17.00;75.20
31113;DHT22;17763;48.730;9.136;2022-07-06T04:11:33;17.00;75.40
31113;DHT22;17763;48.730;9.136;2022-07-06T04:13:59;17.00;75.50
31113;DHT22;17763;48.730;9.136;2022-07-06T04:16:29;17.00;75.80
31113;DHT22;17763;48.730;9.136;2022-07-06T04:18:55;17.00;76.00
31113;DHT22;17763;48.730;9.136;2022-07-06T04:21:20;16.90;76.50
31113;DHT22;17763;48.730;9.136;2022-07-06T04:23:50;16.90;76.90
31113;DHT22;17763;48.730;9.136;2022-07-06T04:26:18;16.70;77.50
31113;DHT22;17763;48.730;9.136;2022-07-06T04:28:44;16.70;78.00
31113;DHT22;17763;48.730;9.136;2022-07-06T04:31:09;16.60;78.30
31113;DHT22;17763;48.730;9.136;2022-07-06T04:33:35;16.60;78.60
31113;DHT22;17763;48.730;9.136;2022-07-06T04:36:01;16.50;79.00
31113;DHT22;17763;48.730;9.136;2022-07-06T04:38:29;16.60;79.30
31113;DHT22;17763;48.730;9.136;2022-07-06T04:40:54;16.50;79.70
31113;DHT22;17763;48.730;9.136;2022-07-06T04:43:22;16.50;80.20
31113;DHT22;17763;48.730;9.136;2022-07-06T04:45:48;16.50;80.70
31113;DHT22;17763;48.730;9.136;2022-07-06T04:48:16;16.50;80.90
31113;DHT22;17763;48.730;9.136;2022-07-06T04:50:42;16.50;81.40
31113;DHT22;17763;48.730;9.136;2022-07-06T04:53:08;16.50;81.80
31113;DHT22;17763;48.730;9.136;2022-07-06T04:55:34;16.50;82.30
31113;DHT22;17763;48.730;9.136;2022-07-06T04:58:04;16.50;82.70
31113;DHT22;17763;48.730;9.136;2022-07-06T05:00:32;16.50;82.80
31113;DHT22;17763;48.730;9.136;2022-07-06T05:02:58;16.50;83.40
31113;DHT22;17763;48.730;9.136;2022-07-06T05:05:23;16.40;84.00
31113;DHT22;17763;48.730;9.136;2022-07-06T05:07:49;16.40;84.60
31113;DHT22;17763;48.730;9.136;2022-07-06T05:10:17;16.40;85.30
31113;DHT22;17763;48.730;9.136;2022-07-06T05:12:43;16.40;85.90
31113;DHT22;17763;48.730;9.136;2022-07-06T05:15:09;16.50;86.40
31113;DHT22;17763;48.730;9.136;2022-07-06T05:17:35;16.50;86.40
31113;DHT22;17763;48.730;9.136;2022-07-06T05:20:01;16.50;87.00
31113;DHT22;17763;48.730;9.136;2022-07-06T05:22:29;16.50;87.50
31113;DHT22;17763;48.730;9.136;2022-07-06T05:24:57;16.60;88.10
31113;DHT22;17763;48.730;9.136;2022-07-06T05:27:22;16.60;88.40
31113;DHT22;17763;48.730;9.136;2022-07-06T05:29:50;16.70;88.70
31113;DHT22;17763;48.730;9.136;2022-07-06T05:32:18;16.70;89.20
31113;DHT22;17763;48.730;9.136;2022-07-06T05:34:46;16.80;90.10
31113;DHT22;17763;48.730;9.136;2022-07-06T05:37:12;16.80;90.10
31113;DHT22;17763;48.730;9.136;2022-07-06T05:39:37;16.90;89.80
31113;DHT22;17763;48.730;9.136;2022-07-06T05:42:04;17.00;90.10
31113;DHT22;17763;48.730;9.136;2022-07-06T05:44:31;17.10;90.00
31113;DHT22;17763;48.730;9.136;2022-07-06T05:46:56;17.20;89.10
31113;DHT22;17763;48.730;9.136;2022-07-06T05:49:42;17.20;88.80
31113;DHT22;17763;48.730;9.136;2022-07-06T05:52:26;17.20;89.10
31113;DHT22;17763;48.730;9.136;2022-07-06T05:54:54;17.20;88.40
31113;DHT22;17763;48.730;9.136;2022-07-06T05:57:19;17.30;88.70
31113;DHT22;17763;48.730;9.136;2022-07-06T05:59:45;17.40;87.80
31113;DHT22;17763;48.730;9.136;2022-07-06T06:02:15;17.40;87.80
31113;DHT22;17763;48.730;9.136;2022-07-06T06:04:41;17.40;88.60
31113;DHT22;17763;48.730;9.136;2022-07-06T06:07:06;17.50;88.40
31113;DHT22;17763;48.730;9.136;2022-07-06T06:09:34;17.50;89.20
31113;DHT22;17763;48.730;9.136;2022-07-06T06:12:00;17.60;88.30
31113;DHT22;17763;48.730;9.136;2022-07-06T06:14:25;17.60;88.10
31113;DHT22;17763;48.730;9.136;2022-07-06T06:16:53;17.70;87.30
31113;DHT22;17763;48.730;9.136;2022-07-06T06:19:21;17.70;85.90
31113;DHT22;17763;48.730;9.136;2022-07-06T06:21:49;17.80;85.80
31113;DHT22;17763;48.730;9.136;2022-07-06T06:24:17;17.90;85.60
31113;DHT22;17763;48.730;9.136;2022-07-06T06:26:42;17.90;85.20
31113;DHT22;17763;48.730;9.136;2022-07-06T06:29:11;17.90;84.60
31113;DHT22;17763;48.730;9.136;2022-07-06T06:31:36;17.90;84.60
31113;DHT22;17763;48.730;9.136;2022-07-06T06:34:04;17.90;85.90
31113;DHT22;17763;48.730;9.136;2022-07-06T06:36:30;17.90;84.20
31113;DHT22;17763;48.730;9.136;2022-07-06T06:38:58;18.00;83.80
31113;DHT22;17763;48.730;9.136;2022-07-06T06:41:27;18.00;84.10
31113;DHT22;17763;48.730;9.136;2022-07-06T06:43:53;18.00;84.60
31113;DHT22;17763;48.730;9.136;2022-07-06T06:46:18;18.10;84.30
31113;DHT22;17763;48.730;9.136;2022-07-06T06:48:44;18.20;84.80
31113;DHT22;17763;48.730;9.136;2022-07-06T06:51:12;18.20;84.50
31113;DHT22;17763;48.730;9.136;2022-07-06T06:53:38;18.30;84.20
31113;DHT22;17763;48.730;9.136;2022-07-06T06:56:06;18.40;82.80
31113;DHT22;17763;48.730;9.136;2022-07-06T06:58:34;18.40;82.40
31113;DHT22;17763;48.730;9.136;2022-07-06T07:01:02;18.40;81.70
31113;DHT22;17763;48.730;9.136;2022-07-06T07:03:28;18.40;81.70
31113;DHT22;17763;48.730;9.136;2022-07-06T07:05:56;18.40;82.50
31113;DHT22;17763;48.730;9.136;2022-07-06T07:08:21;18.30;83.20
31113;DHT22;17763;48.730;9.136;2022-07-06T07:10:47;18.30;82.10
31113;DHT22;17763;48.730;9.136;2022-07-06T07:13:13;18.30;81.50
31113;DHT22;17763;48.730;9.136;2022-07-06T07:15:39;18.30;80.90
31113;DHT22;17763;48.730;9.136;2022-07-06T07:18:04;18.30;81.10
31113;DHT22;17763;48.730;9.136;2022-07-06T07:20:30;18.40;81.30
31113;DHT22;17763;48.730;9.136;2022-07-06T07:22:59;18.50;80.00
31113;DHT22;17763;48.730;9.136;2022-07-06T07:25:27;18.50;80.30
31113;DHT22;17763;48.730;9.136;2022-07-06T07:27:53;18.50;82.10
31113;DHT22;17763;48.730;9.136;2022-07-06T07:30:19;18.50;80.90
31113;DHT22;17763;48.730;9.136;2022-07-06T07:32:47;18.50;81.30
31113;DHT22;17763;48.730;9.136;2022-07-06T07:35:13;18.60;80.40
31113;DHT22;17763;48.730;9.136;2022-07-06T07:37:41;18.60;80.30
31113;DHT22;17763;48.730;9.136;2022-07-06T07:40:07;18.60;80.50
31113;DHT22;17763;48.730;9.136;2022-07-06T07:42:35;18.60;80.40
31113;DHT22;17763;48.730;9.136;2022-07-06T07:45:00;18.60;80.60
31113;DHT22;17763;48.730;9.136;2022-07-06T07:47:28;18.70;81.00
31113;DHT22;17763;48.730;9.136;2022-07-06T07:49:54;18.70;80.80
31113;DHT22;17763;48.730;9.136;2022-07-06T07:52:20;18.70;79.00
31113;DHT22;17763;48.730;9.136;2022-07-06T07:54:45;18.70;79.50
31113;DHT22;17763;48.730;9.136;2022-07-06T07:57:16;18.80;79.70
31113;DHT22;17763;48.730;9.136;2022-07-06T07:59:41;18.80;77.30
31113;DHT22;17763;48.730;9.136;2022-07-06T08:02:10;18.80;79.30
31113;DHT22;17763;48.730;9.136;2022-07-06T08:04:36;18.80;78.20
31113;DHT22;17763;48.730;9.136;2022-07-06T08:07:01;18.90;76.40
31113;DHT22;17763;48.730;9.136;2022-07-06T08:09:29;18.80;75.40
31113;DHT22;17763;48.730;9.136;2022-07-06T08:11:57;18.90;75.90
31113;DHT22;17763;48.730;9.136;2022-07-06T08:14:24;18.90;76.80
31113;DHT22;17763;48.730;9.136;2022-07-06T08:16:50;18.90;77.10
31113;DHT22;17763;48.730;9.136;2022-07-06T08:19:18;19.00;76.80
31113;DHT22;17763;48.730;9.136;2022-07-06T08:21:44;19.00;75.90
31113;DHT22;17763;48.730;9.136;2022-07-06T08:24:12;19.10;76.10
31113;DHT22;17763;48.730;9.136;2022-07-06T08:26:38;19.10;75.80
31113;DHT22;17763;48.730;9.136;2022-07-06T08:29:04;19.10;76.10
31113;DHT22;17763;48.730;9.136;2022-07-06T08:31:32;19.10;76.00
31113;DHT22;17763;48.730;9.136;2022-07-06T08:34:02;19.20;76.90
31113;DHT22;17763;48.730;9.136;2022-07-06T08:36:28;19.30;77.50
31113;DHT22;17763;48.730;9.136;2022-07-06T08:38:56;19.40;77.50
31113;DHT22;17763;48.730;9.136;2022-07-06T08:41:25;19.40;77.90
31113;DHT22;17763;48.730;9.136;2022-07-06T08:43:53;19.50;78.80
31113;DHT22;17763;48.730;9.136;2022-07-06T08:46:20;19.60;78.00
31113;DHT22;17763;48.730;9.136;2022-07-06T08:48:45;19.70;75.70
31113;DHT22;17763;48.730;9.136;2022-07-06T08:51:15;19.70;74.60
31113;DHT22;17763;48.730;9.136;2022-07-06T08:53:45;19.70;75.30
31113;DHT22;17763;48.730;9.136;2022-07-06T08:56:16;19.80;75.70
31113;DHT22;17763;48.730;9.136;2022-07-06T08:58:43;19.80;75.80
31113;DHT22;17763;48.730;9.136;2022-07-06T09:01:12;19.80;77.10
31113;DHT22;17763;48.730;9.136;2022-07-06T09:03:41;19.80;77.20
31113;DHT22;17763;48.730;9.136;2022-07-06T09:06:09;19.90;76.20
31113;DHT22;17763;48.730;9.136;2022-07-06T09:08:36;19.90;75.20
31113;DHT22;17763;48.730;9.136;2022-07-06T09:11:05;19.90;76.20
31113;DHT22;17763;48.730;9.136;2022-07-06T09:13:33;19.90;75.40
31113;DHT22;17763;48.730;9.136;2022-07-06T09:16:13;19.90;75.60
31113;DHT22;17763;48.730;9.136;2022-07-06T09:18:39;19.90;75.70
31113;DHT22;17763;48.730;9.136;2022-07-06T09:21:10;19.90;76.00
31113;DHT22;17763;48.730;9.136;2022-07-06T09:23:37;20.00;75.70
31113;DHT22;17763;48.730;9.136;2022-07-06T09:26:04;20.10;76.90
31113;DHT22;17763;48.730;9.136;2022-07-06T09:28:43;20.10;75.50
31113;DHT22;17763;48.730;9.136;2022-07-06T09:31:10;20.10;74.70
31113;DHT22;17763;48.730;9.136;2022-07-06T09:33:36;20.20;73.80
31113;DHT22;17763;48.730;9.136;2022-07-06T09:36:04;20.20;73.70
31113;DHT22;17763;48.730;9.136;2022-07-06T09:38:31;20.20;74.20
31113;DHT22;17763;48.730;9.136;2022-07-06T09:40:57;20.30;75.50
31113;DHT22;17763;48.730;9.136;2022-07-06T09:43:24;20.30;75.80
31113;DHT22;17763;48.730;9.136;2022-07-06T09:45:55;20.40;75.50
31113;DHT22;17763;48.730;9.136;2022-07-06T09:48:27;20.40;73.90
31113;DHT22;17763;48.730;9.136;2022-07-06T09:50:58;20.40;74.20
31113;DHT22;17763;48.730;9.136;2022-07-06T09:53:25;20.40;74.20
31113;DHT22;17763;48.730;9.136;2022-07-06T09:55:53;20.40;74.20
31113;DHT22;17763;48.730;9.136;2022-07-06T09:58:20;20.50;75.10
31113;DHT22;17763;48.730;9.136;2022-07-06T10:00:47;20.50;74.10
31113;DHT22;17763;48.730;9.136;2022-07-06T10:03:14;20.50;74.80
31113;DHT22;17763;48.730;9.136;2022-07-06T10:05:45;20.50;74.90
31113;DHT22;17763;48.730;9.136;2022-07-06T10:08:16;20.60;74.80
31113;DHT22;17763;48.730;9.136;2022-07-06T10:10:44;20.60;74.70
31113;DHT22;17763;48.730;9.136;2022-07-06T10:13:12;20.60;73.50
31113;DHT22;17763;48.730;9.136;2022-07-06T10:15:40;20.60;74.10
31113;DHT22;17763;48.730;9.136;2022-07-06T10:18:09;20.60;74.10
31113;DHT22;17763;48.730;9.136;2022-07-06T10:20:37;20.60;73.50
31113;DHT22;17763;48.730;9.136;2022-07-06T10:23:05;20.60;73.00
31113;DHT22;17763;48.730;9.136;2022-07-06T10:25:32;20.60;72.70
31113;DHT22;17763;48.730;9.136;2022-07-06T10:28:01;20.70;72.60
31113;DHT22;17763;48.730;9.136;2022-07-06T10:30:28;20.70;73.50
31113;DHT22;17763;48.730;9.136;2022-07-06T10:32:57;20.80;74.10
31113;DHT22;17763;48.730;9.136;2022-07-06T10:35:23;20.70;72.10
31113;DHT22;17763;48.730;9.136;2022-07-06T10:38:08;20.70;73.20
31113;DHT22;17763;48.730;9.136;2022-07-06T10:40:35;20.70;72.50
31113;DHT22;17763;48.730;9.136;2022-07-06T10:43:23;20.70;74.00
31113;DHT22;17763;48.730;9.136;2022-07-06T10:45:56;20.70;73.90
31113;DHT22;17763;48.730;9.136;2022-07-06T10:48:24;20.70;74.10
31113;DHT22;17763;48.730;9.136;2022-07-06T10:50:53;20.70;73.30
31113;DHT22;17763;48.730;9.136;2022-07-06T10:53:23;20.60;71.80
31113;DHT22;17763;48.730;9.136;2022-07-06T10:55:53;20.60;72.50
31113;DHT22;17763;48.730;9.136;2022-07-06T11:01:09;20.70;74.20
31113;DHT22;17763;48.730;9.136;2022-07-06T11:04:06;20.70;73.20
31113;DHT22;17763;48.730;9.136;2022-07-06T11:06:34;20.70;73.50
31113;DHT22;17763;48.730;9.136;2022-07-06T11:09:03;20.80;73.80
31113;DHT22;17763;48.730;9.136;2022-07-06T11:14:15;20.60;73.90
31113;DHT22;17763;48.730;9.136;2022-07-06T11:19:19;20.70;75.70
31113;DHT22;17763;48.730;9.136;2022-07-06T11:21:50;20.80;74.10
31113;DHT22;17763;48.730;9.136;2022-07-06T11:24:19;20.80;73.40
31113;DHT22;17763;48.730;9.136;2022-07-06T11:26:48;20.80;73.90
31113;DHT22;17763;48.730;9.136;2022-07-06T11:29:17;20.60;73.00
31113;DHT22;17763;48.730;9.136;2022-07-06T11:31:49;20.60;73.30
31113;DHT22;17763;48.730;9.136;2022-07-06T11:34:20;20.70;73.80
31113;DHT22;17763;48.730;9.136;2022-07-06T11:36:46;20.60;73.20
31113;DHT22;17763;48.730;9.136;2022-07-06T11:39:14;20.70;73.80
31113;DHT22;17763;48.730;9.136;2022-07-06T11:41:40;20.80;72.80
31113;DHT22;17763;48.730;9.136;2022-07-06T11:44:08;20.90;73.20
31113;DHT22;17763;48.730;9.136;2022-07-06T11:46:35;21.00;73.70
31113;DHT22;17763;48.730;9.136;2022-07-06T11:49:02;21.10;72.50
31113;DHT22;17763;48.730;9.136;2022-07-06T11:51:32;21.20;72.90
31113;DHT22;17763;48.730;9.136;2022-07-06T11:54:06;21.30;72.10
31113;DHT22;17763;48.730;9.136;2022-07-06T11:56:32;21.30;71.50
31113;DHT22;17763;48.730;9.136;2022-07-06T11:58:59;21.40;70.80
31113;DHT22;17763;48.730;9.136;2022-07-06T12:01:29;21.40;72.50
31113;DHT22;17763;48.730;9.136;2022-07-06T12:03:59;21.30;73.60
31113;DHT22;17763;48.730;9.136;2022-07-06T12:06:29;21.30;72.70
31113;DHT22;17763;48.730;9.136;2022-07-06T12:08:57;21.30;72.60
31113;DHT22;17763;48.730;9.136;2022-07-06T12:11:30;21.40;72.00
31113;DHT22;17763;48.730;9.136;2022-07-06T12:14:02;21.50;71.10
31113;DHT22;17763;48.730;9.136;2022-07-06T12:16:35;21.50;71.30
31113;DHT22;17763;48.730;9.136;2022-07-06T12:19:02;21.50;72.30
31113;DHT22;17763;48.730;9.136;2022-07-06T12:21:31;21.30;71.50
31113;DHT22;17763;48.730;9.136;2022-07-06T12:24:00;21.30;72.40
31113;DHT22;17763;48.730;9.136;2022-07-06T12:26:39;21.30;72.30
31113;DHT22;17763;48.730;9.136;2022-07-06T12:29:07;21.30;74.00
31113;DHT22;17763;48.730;9.136;2022-07-06T12:31:39;21.30;72.60
31113;DHT22;17763;48.730;9.136;2022-07-06T12:34:12;21.40;71.20
31113;DHT22;17763;48.730;9.136;2022-07-06T12:39:20;21.40;72.30
31113;DHT22;17763;48.730;9.136;2022-07-06T12:41:52;21.30;72.40
31113;DHT22;17763;48.730;9.136;2022-07-06T12:44:19;21.40;72.00
31113;DHT22;17763;48.730;9.136;2022-07-06T12:46:45;21.50;71.10
31113;DHT22;17763;48.730;9.136;2022-07-06T12:49:24;21.50;70.50
31113;DHT22;17763;48.730;9.136;2022-07-06T12:54:32;21.40;71.60
31113;DHT22;17763;48.730;9.136;2022-07-06T12:57:00;21.40;71.50
31113;DHT22;17763;48.730;9.136;2022-07-06T12:59:26;21.40;72.00
31113;DHT22;17763;48.730;9.136;2022-07-06T13:01:53;21.40;71.10
31113;DHT22;17763;48.730;9.136;2022-07-06T13:04:27;21.40;70.80
31113;DHT22;17763;48.730;9.136;2022-07-06T13:06:53;21.40;70.60
31113;DHT22;17763;48.730;9.136;2022-07-06T13:09:19;21.30;70.20
31113;DHT22;17763;48.730;9.136;2022-07-06T13:11:47;21.20;70.80
31113;DHT22;17763;48.730;9.136;2022-07-06T13:14:14;21.20;70.90
31113;DHT22;17763;48.730;9.136;2022-07-06T13:16:40;21.30;70.90
31113;DHT22;17763;48.730;9.136;2022-07-06T13:19:08;21.30;70.70
31113;DHT22;17763;48.730;9.136;2022-07-06T13:21:34;21.20;70.20
31113;DHT22;17763;48.730;9.136;2022-07-06T13:24:04;21.30;70.50
31113;DHT22;17763;48.730;9.136;2022-07-06T13:26:30;21.30;69.90
31113;DHT22;17763;48.730;9.136;2022-07-06T13:28:59;21.40;69.80
31113;DHT22;17763;48.730;9.136;2022-07-06T13:31:27;21.40;70.30
31113;DHT22;17763;48.730;9.136;2022-07-06T13:33:54;21.40;69.20
31113;DHT22;17763;48.730;9.136;2022-07-06T13:36:19;21.50;68.50
31113;DHT22;17763;48.730;9.136;2022-07-06T13:38:45;21.50;69.20
31113;DHT22;17763;48.730;9.136;2022-07-06T13:41:13;21.50;69.60
31113;DHT22;17763;48.730;9.136;2022-07-06T13:43:41;21.40;68.60
31113;DHT22;17763;48.730;9.136;2022-07-06T13:46:10;21.40;68.40
31113;DHT22;17763;48.730;9.136;2022-07-06T13:48:36;21.30;68.90
31113;DHT22;17763;48.730;9.136;2022-07-06T13:51:02;21.40;69.30
31113;DHT22;17763;48.730;9.136;2022-07-06T13:53:28;21.30;68.30
31113;DHT22;17763;48.730;9.136;2022-07-06T13:55:54;21.30;70.30
31113;DHT22;17763;48.730;9.136;2022-07-06T13:58:25;21.40;70.00
31113;DHT22;17763;48.730;9.136;2022-07-06T14:00:50;21.40;68.50
31113;DHT22;17763;48.730;9.136;2022-07-06T14:03:18;21.50;67.90
31113;DHT22;17763;48.730;9.136;2022-07-06T14:05:44;21.60;69.20
31113;DHT22;17763;48.730;9.136;2022-07-06T14:08:10;21.70;67.90
31113;DHT22;17763;48.730;9.136;2022-07-06T14:10:38;21.80;66.90
31113;DHT22;17763;48.730;9.136;2022-07-06T14:13:03;21.70;67.10
31113;DHT22;17763;48.730;9.136;2022-07-06T14:15:29;21.80;68.10
31113;DHT22;17763;48.730;9.136;2022-07-06T14:17:55;21.80;68.10
31113;DHT22;17763;48.730;9.136;2022-07-06T14:20:20;21.90;65.60
31113;DHT22;17763;48.730;9.136;2022-07-06T14:22:46;22.00;66.10
31113;DHT22;17763;48.730;9.136;2022-07-06T14:25:12;22.00;65.70
31113;DHT22;17763;48.730;9.136;2022-07-06T14:27:40;22.00;66.10
31113;DHT22;17763;48.730;9.136;2022-07-06T14:30:09;21.90;65.50
31113;DHT22;17763;48.730;9.136;2022-07-06T14:32:37;21.90;65.70
31113;DHT22;17763;48.730;9.136;2022-07-06T14:35:05;21.90;66.50
31113;DHT22;17763;48.730;9.136;2022-07-06T14:37:31;21.90;65.00
31113;DHT22;17763;48.730;9.136;2022-07-06T14:39:57;22.00;65.00
31113;DHT22;17763;48.730;9.136;2022-07-06T14:42:24;22.10;64.10
31113;DHT22;17763;48.730;9.136;2022-07-06T14:44:50;22.10;63.80
31113;DHT22;17763;48.730;9.136;2022-07-06T14:47:16;22.20;64.50
31113;DHT22;17763;48.730;9.136;2022-07-06T14:49:42;22.30;64.90
31113;DHT22;17763;48.730;9.136;2022-07-06T14:52:10;22.30;63.90
31113;DHT22;17763;48.730;9.136;2022-07-06T14:54:36;22.30;64.80
31113;DHT22;17763;48.730;9.136;2022-07-06T14:57:02;22.30;64.30
31113;DHT22;17763;48.730;9.136;2022-07-06T14:59:33;22.40;64.60
31113;DHT22;17763;48.730;9.136;2022-07-06T15:01:59;22.50;63.60
31113;DHT22;17763;48.730;9.136;2022-07-06T15:04:25;22.60;62.40
31113;DHT22;17763;48.730;9.136;2022-07-06T15:06:50;22.70;62.50
31113;DHT22;17763;48.730;9.136;2022-07-06T15:09:16;22.70;62.00
31113;DHT22;17763;48.730;9.136;2022-07-06T15:11:45;22.60;63.00
31113;DHT22;17763;48.730;9.136;2022-07-06T15:14:11;22.70;63.70
31113;DHT22;17763;48.730;9.136;2022-07-06T15:16:37;22.70;63.30
31113;DHT22;17763;48.730;9.136;2022-07-06T15:19:03;22.60;62.80
31113;DHT22;17763;48.730;9.136;2022-07-06T15:21:34;22.70;63.30
31113;DHT22;17763;48.730;9.136;2022-07-06T15:23:59;22.80;62.90
31113;DHT22;17763;48.730;9.136;2022-07-06T15:26:25;23.00;61.90
31113;DHT22;17763;48.730;9.136;2022-07-06T15:28:51;22.90;60.70
31113;DHT22;17763;48.730;9.136;2022-07-06T15:31:16;22.90;61.10
31113;DHT22;17763;48.730;9.136;2022-07-06T15:33:42;22.80;59.80
31113;DHT22;17763;48.730;9.136;2022-07-06T15:36:08;22.90;60.70
31113;DHT22;17763;48.730;9.136;2022-07-06T15:38:33;22.90;60.90
31113;DHT22;17763;48.730;9.136;2022-07-06T15:41:02;22.90;60.30
31113;DHT22;17763;48.730;9.136;2022-07-06T15:43:31;22.70;60.00
31113;DHT22;17763;48.730;9.136;2022-07-06T15:46:00;22.60;61.50
31113;DHT22;17763;48.730;9.136;2022-07-06T15:48:29;22.70;60.20